Terminal Aerodrome Forecast
Issued by NWS Boston, MA

Home | Current Version | Previous Version | Text Only | Print | Product List | Glossary On
Versions: 1 2 3 4 5 6 7 8 9 10 11 12 13 14 15 16 17 18 19 20 21 22 23 24 25 26 27 28 29 30 31 32 33 34 35 36 37 38 39 40 41
000
FTUS41 KBOX 290526
TAFBDL
TAF
KBDL 290526Z 2906/3012 00000KT P6SM VCSH OVC090
     FM290800 00000KT 6SM -SHRA OVC050
     FM291100 VRB03KT 4SM +SHRA OVC050
     FM291800 04006KT 6SM -SHRA OVC050
     FM292000 03005KT P6SM VCSH OVC080
     FM292300 01004KT P6SM BKN150=

USA.gov is the U.S. government's official web portal to all federal, state and local government web resources and services.